createdAt,value
2023-03-17T00:00:51.736Z,65.3
2023-03-17T00:02:49.407Z,65.3
2023-03-17T00:04:55.145Z,65.5
2023-03-17T00:06:52.744Z,65.4
2023-03-17T00:08:50.346Z,65.4
2023-03-17T00:10:47.954Z,65.3
2023-03-17T00:12:45.533Z,65.2
2023-03-17T00:14:43.163Z,65.2
2023-03-17T00:16:40.874Z,65.1
2023-03-17T00:18:46.216Z,64.9
2023-03-17T00:20:43.843Z,64.9
2023-03-17T00:24:39.029Z,64.8
2023-03-17T00:26:36.653Z,64.7
2023-03-17T00:28:34.237Z,64.7
2023-03-17T00:32:37.385Z,64.7
2023-03-17T00:34:34.958Z,64.7
2023-03-17T00:38:30.185Z,65
2023-03-17T00:40:28.331Z,65.1
2023-03-17T00:42:25.407Z,65.2
2023-03-17T00:44:23.015Z,65.2
2023-03-17T00:46:28.658Z,65.2
2023-03-17T00:48:26.144Z,65.1
2023-03-17T00:50:23.695Z,65
2023-03-17T00:51:26.451Z,65
2023-03-17T00:53:24.075Z,65
2023-03-17T00:57:19.260Z,64.9
2023-03-17T00:59:24.739Z,65
2023-03-17T01:01:22.406Z,65
2023-03-17T01:03:23.553Z,65
2023-03-17T01:05:17.515Z,65
2023-03-17T01:07:15.112Z,64.9
2023-03-17T01:09:12.695Z,64.8
2023-03-17T01:11:10.283Z,64.7
2023-03-17T01:13:15.859Z,64.6
2023-03-17T01:15:13.438Z,64.6
2023-03-17T01:17:11.039Z,64.6
2023-03-17T01:19:08.631Z,64.8
2023-03-17T01:21:06.245Z,64.9
2023-03-17T01:23:03.798Z,65
2023-03-17T01:25:01.415Z,65
2023-03-17T01:27:06.753Z,65.2
2023-03-17T01:29:04.335Z,65.2
2023-03-17T01:31:01.940Z,65.3
2023-03-17T01:32:59.576Z,65.4
2023-03-17T01:34:57.169Z,65.6
2023-03-17T01:38:52.395Z,65.7
2023-03-17T01:42:55.432Z,65.9
2023-03-17T01:44:53.041Z,65.8
2023-03-17T01:49:50.993Z,66
2023-03-17T01:51:48.594Z,66
2023-03-17T01:53:54.092Z,66.1
2023-03-17T01:55:51.692Z,66.1
2023-03-17T01:59:46.892Z,66.1
2023-03-17T02:01:44.472Z,66.1
2023-03-17T02:05:39.712Z,66.2
2023-03-17T02:07:45.169Z,66.3
2023-03-17T02:09:42.769Z,66.4
2023-03-17T02:13:39.468Z,66.3
2023-03-17T02:17:34.694Z,66.5
2023-03-17T02:19:32.260Z,66.6
2023-03-17T02:21:37.759Z,66.7
2023-03-17T02:23:35.362Z,66.9
2023-03-17T02:29:28.170Z,66.9
2023-03-17T02:31:25.739Z,66.9
2023-03-17T02:33:23.339Z,66.8
2023-03-17T02:35:28.847Z,66.9
2023-03-17T02:37:26.423Z,67
2023-03-17T02:39:24.045Z,67
2023-03-17T02:41:46.909Z,66.7
2023-03-17T02:43:44.478Z,66.7
2023-03-17T02:49:45.175Z,66.6
2023-03-17T02:51:42.748Z,66.8
2023-03-17T02:53:40.361Z,66.8
2023-03-17T02:55:37.943Z,66.8
2023-03-17T02:57:35.540Z,66.8
2023-03-17T02:59:33.148Z,66.8
2023-03-17T03:01:38.717Z,66.9
2023-03-17T03:03:36.244Z,66.9
2023-03-17T03:07:31.435Z,67
2023-03-17T03:09:29.025Z,67
2023-03-17T03:11:26.651Z,66.9
2023-03-17T03:13:24.227Z,66.9
2023-03-17T03:15:29.811Z,66.9
2023-03-17T03:17:27.308Z,66.9
2023-03-17T03:19:24.905Z,66.9
2023-03-17T03:21:22.507Z,66.9
2023-03-17T03:23:20.096Z,66.9
2023-03-17T03:27:15.306Z,66.9
2023-03-17T03:31:18.485Z,66.9
2023-03-17T03:34:18.797Z,66.9
2023-03-17T03:36:16.380Z,66.9
2023-03-17T03:38:13.973Z,66.9
2023-03-17T03:42:17.064Z,67
2023-03-17T03:44:14.660Z,67.1
2023-03-17T03:46:12.270Z,67.1
2023-03-17T03:48:09.841Z,67.1
2023-03-17T03:52:05.054Z,67
2023-03-17T03:58:07.674Z,66.8
2023-03-17T04:00:03.380Z,66.7
2023-03-17T04:02:00.949Z,66.7
2023-03-17T04:03:58.521Z,66.7
2023-03-17T04:05:56.127Z,66.6
2023-03-17T04:09:59.245Z,66.5
2023-03-17T04:11:56.882Z,66.3
2023-03-17T04:13:54.461Z,66.3
2023-03-17T04:15:52.090Z,66.2
2023-03-17T04:17:49.693Z,66.1
2023-03-17T04:19:47.292Z,66.1
2023-03-17T04:21:44.891Z,66.1
2023-03-17T04:25:47.993Z,66.1
2023-03-17T04:27:45.601Z,66.2
2023-03-17T04:28:49.851Z,66.2
2023-03-17T04:30:45.997Z,66.3
2023-03-17T04:32:43.621Z,66.4
2023-03-17T04:34:41.208Z,66.3
2023-03-17T04:36:46.737Z,66.5
2023-03-17T04:38:44.291Z,66.6
2023-03-17T04:40:41.875Z,66.5
2023-03-17T04:42:39.513Z,66.5
2023-03-17T04:44:37.078Z,66.4
2023-03-17T04:46:34.673Z,66.2
2023-03-17T04:48:32.276Z,66
2023-03-17T04:54:32.974Z,65.2
2023-03-17T04:56:31.847Z,64.9
2023-03-17T04:58:31.054Z,64.7
2023-03-17T05:00:25.753Z,64.5
2023-03-17T05:02:23.394Z,64.4
2023-03-17T05:04:31.524Z,64.2
2023-03-17T05:10:21.604Z,64.1
2023-03-17T05:12:19.208Z,64.1
2023-03-17T05:14:16.836Z,64.1
2023-03-17T05:16:14.447Z,64
2023-03-17T05:18:19.945Z,63.9
2023-03-17T05:22:15.128Z,63.9
2023-03-17T05:23:17.887Z,63.8
2023-03-17T05:27:13.094Z,63.8
2023-03-17T05:29:10.723Z,63.8
2023-03-17T05:31:16.316Z,63.9
2023-03-17T05:33:13.784Z,63.8
2023-03-17T05:39:06.590Z,63.8
2023-03-17T05:41:04.182Z,63.9
2023-03-17T05:49:02.496Z,64.7
2023-03-17T05:51:00.122Z,64.9
2023-03-17T05:52:57.658Z,65.1
2023-03-17T05:58:58.347Z,65.3
2023-03-17T06:00:55.953Z,65.5
2023-03-17T06:02:53.543Z,65.6
2023-03-17T06:04:51.146Z,65.7
2023-03-17T06:06:48.743Z,65.7
2023-03-17T06:08:46.358Z,65.8
2023-03-17T06:10:43.949Z,66
2023-03-17T06:12:49.492Z,66.2
2023-03-17T06:14:47.075Z,66.3
2023-03-17T06:16:44.665Z,66.5
2023-03-17T06:19:11.614Z,66.4
2023-03-17T06:21:09.197Z,66.4
2023-03-17T06:27:09.887Z,66.7
2023-03-17T06:29:07.480Z,66.9
2023-03-17T06:31:07.230Z,67
2023-03-17T06:33:02.841Z,67.1
2023-03-17T06:35:00.311Z,67.2
2023-03-17T06:36:57.913Z,67.3
2023-03-17T06:39:03.418Z,67.5
2023-03-17T06:41:01.016Z,67.6
2023-03-17T06:44:56.226Z,67.9
2023-03-17T06:46:53.828Z,68
2023-03-17T06:48:51.451Z,68.1
2023-03-17T06:50:49.016Z,68.3
2023-03-17T06:54:52.099Z,68.7
2023-03-17T06:56:49.702Z,68.8
2023-03-17T07:00:44.904Z,68.9
2023-03-17T07:04:40.172Z,69.1
2023-03-17T07:10:40.810Z,69.6
2023-03-17T07:11:43.599Z,69.7
2023-03-17T07:15:38.768Z,69.9
2023-03-17T07:17:36.432Z,69.9
2023-03-17T07:19:41.846Z,70
2023-03-17T07:21:39.452Z,70
2023-03-17T07:23:37.035Z,70
2023-03-17T07:25:34.609Z,70
2023-03-17T07:27:32.235Z,70
2023-03-17T07:29:29.910Z,70
2023-03-17T07:33:32.939Z,69.9
2023-03-17T07:37:28.164Z,69.5
2023-03-17T07:43:20.957Z,68.8
2023-03-17T07:47:24.005Z,68.1
2023-03-17T07:49:37.957Z,67.9
2023-03-17T07:51:19.237Z,67.9
2023-03-17T07:53:18.449Z,67.9
2023-03-17T07:57:13.753Z,67.5
2023-03-17T07:59:11.221Z,67.4
2023-03-17T08:01:16.654Z,66.4
2023-03-17T08:03:14.348Z,65.3
2023-03-17T08:05:11.930Z,64.5
2023-03-17T08:06:14.663Z,63.6
2023-03-17T08:08:12.280Z,63
2023-03-17T08:10:09.850Z,62.7
2023-03-17T08:14:13.014Z,60.9
2023-03-17T08:18:08.242Z,60.1
2023-03-17T08:20:05.801Z,59.8
2023-03-17T08:22:03.399Z,59.6
2023-03-17T08:24:01.028Z,59.4
2023-03-17T08:25:58.627Z,59.3
2023-03-17T08:28:04.134Z,58.9
2023-03-17T08:30:01.737Z,58.5
2023-03-17T08:31:59.338Z,58.2
2023-03-17T08:33:56.985Z,57.9
2023-03-17T08:35:54.656Z,57.5
2023-03-17T08:37:54.379Z,57.2
2023-03-17T08:39:49.785Z,56.9
2023-03-17T08:43:52.912Z,55.9
2023-03-17T08:47:48.140Z,55.6
2023-03-17T08:49:45.842Z,55.5
2023-03-17T08:53:40.976Z,55.3
2023-03-17T08:55:46.504Z,55
2023-03-17T09:00:44.489Z,54.5
2023-03-17T09:02:42.190Z,54.4
2023-03-17T09:04:40.208Z,54.3
2023-03-17T09:06:37.383Z,54.2
2023-03-17T09:08:42.929Z,53.8
2023-03-17T09:10:42.009Z,53.6
2023-03-17T09:12:38.092Z,53.4
2023-03-17T09:16:33.384Z,52.9
2023-03-17T09:20:29.164Z,52.7
2023-03-17T09:24:31.718Z,52.5
2023-03-17T09:26:29.317Z,52.5
2023-03-17T09:28:26.940Z,52.5
2023-03-17T09:30:24.622Z,52.5
2023-03-17T09:32:22.145Z,52.4
2023-03-17T09:34:19.754Z,52.3
2023-03-17T09:36:25.317Z,52.3
2023-03-17T09:38:22.939Z,52.3
2023-03-17T09:40:20.541Z,52.2
2023-03-17T09:42:18.154Z,52.2
2023-03-17T09:44:15.806Z,52.2
2023-03-17T09:46:13.379Z,52.1
2023-03-17T09:48:10.982Z,52.1
2023-03-17T09:54:11.744Z,52.2
2023-03-17T09:56:38.625Z,51.8
2023-03-17T09:58:36.224Z,51.6
2023-03-17T10:00:33.858Z,51.4
2023-03-17T10:02:39.395Z,51.1
2023-03-17T10:04:36.977Z,51.1
2023-03-17T10:10:30.111Z,51.4
2023-03-17T10:18:28.189Z,51.5
2023-03-17T10:22:23.381Z,51.5
2023-03-17T10:24:21.010Z,51.4
2023-03-17T10:26:18.594Z,51.4
2023-03-17T10:28:16.206Z,51.4
2023-03-17T10:32:19.316Z,51.5
2023-03-17T10:34:16.945Z,51.5
2023-03-17T10:38:14.586Z,51.4
2023-03-17T10:40:09.730Z,51.2
2023-03-17T10:42:07.420Z,51
2023-03-17T10:44:12.882Z,50.6
2023-03-17T10:46:10.446Z,50.5
2023-03-17T10:48:08.068Z,50.4
2023-03-17T10:49:10.813Z,50.3
2023-03-17T10:51:08.419Z,50.3
2023-03-17T10:55:03.572Z,50.1
2023-03-17T10:57:09.088Z,49.9
2023-03-17T10:59:06.796Z,49.8
2023-03-17T11:01:04.309Z,49.8
2023-03-17T11:03:01.884Z,49.7
2023-03-17T11:04:59.488Z,49.8
2023-03-17T11:11:00.176Z,49.7
2023-03-17T11:16:52.957Z,49.3
2023-03-17T11:18:50.575Z,49.2
2023-03-17T11:20:48.163Z,49
2023-03-17T11:28:46.460Z,48.1
2023-03-17T11:30:44.043Z,48.1
2023-03-17T11:32:41.706Z,48.5
2023-03-17T11:34:39.202Z,48.7
2023-03-17T11:36:36.819Z,48.9
2023-03-17T11:38:42.730Z,49.4
2023-03-17T11:43:40.213Z,49.8
2023-03-17T11:45:37.841Z,49.9
2023-03-17T11:47:35.381Z,49.9
2023-03-17T11:49:33.013Z,50
2023-03-17T11:51:38.476Z,49.9
2023-03-17T11:53:36.088Z,49.9
2023-03-17T11:55:33.632Z,49.8
2023-03-17T11:57:31.205Z,49.8
2023-03-17T11:59:28.818Z,49.7
2023-03-17T12:01:26.375Z,49.7
2023-03-17T12:03:23.988Z,49.7
2023-03-17T12:05:29.483Z,49.2
2023-03-17T12:07:27.056Z,49
2023-03-17T12:09:25.936Z,48.7
2023-03-17T12:13:19.754Z,47.8
2023-03-17T12:17:14.882Z,47
2023-03-17T12:19:20.369Z,46.5
2023-03-17T12:21:17.967Z,46.4
2023-03-17T12:23:15.488Z,46.5
2023-03-17T12:25:13.125Z,46.7
2023-03-17T12:29:08.208Z,47.1
2023-03-17T12:33:11.305Z,46.6
2023-03-17T12:35:08.767Z,46.2
2023-03-17T12:38:09.086Z,45.8
2023-03-17T12:40:06.611Z,45.7
2023-03-17T12:42:04.134Z,45.6
2023-03-17T12:44:01.640Z,45.6
2023-03-17T12:46:07.182Z,45.2
2023-03-17T12:48:04.686Z,45
2023-03-17T12:50:02.636Z,44.9
2023-03-17T12:51:59.691Z,44.8
2023-03-17T12:53:57.180Z,44.7
2023-03-17T12:57:52.229Z,44.6
2023-03-17T13:05:50.197Z,44.3
2023-03-17T13:09:45.256Z,44.1
2023-03-17T13:11:42.741Z,44
2023-03-17T13:13:48.185Z,44
2023-03-17T13:15:46.052Z,44.2
2023-03-17T13:19:40.742Z,44.9
2023-03-17T13:21:38.248Z,45.1
2023-03-17T13:23:35.771Z,45.3
2023-03-17T13:25:33.855Z,45.2
2023-03-17T13:27:38.755Z,45.1
2023-03-17T13:31:33.892Z,45.2
2023-03-17T13:33:51.843Z,45.8
2023-03-17T13:35:49.383Z,46
2023-03-17T13:39:52.338Z,46.9
2023-03-17T13:41:49.866Z,46.8
2023-03-17T13:49:40.022Z,47
2023-03-17T13:51:38.815Z,47
2023-03-17T13:53:43.019Z,46.9
2023-03-17T13:55:40.670Z,46.7
2023-03-17T13:57:38.095Z,46.5
2023-03-17T13:59:35.645Z,46.5
2023-03-17T14:01:33.233Z,46.5
2023-03-17T14:03:30.816Z,46.5
2023-03-17T14:05:28.331Z,46.5
2023-03-17T14:07:33.802Z,46.7
2023-03-17T14:09:31.306Z,46.7
2023-03-17T14:11:28.890Z,46.5
2023-03-17T14:17:21.513Z,46.2
2023-03-17T14:19:19.090Z,45.9
2023-03-17T14:21:24.580Z,45.4
2023-03-17T14:23:22.132Z,45.2
2023-03-17T14:25:19.683Z,44.9
2023-03-17T14:28:19.926Z,43.8
2023-03-17T14:32:15.031Z,43.6
2023-03-17T14:34:20.498Z,44.3
2023-03-17T14:36:18.091Z,44.9
2023-03-17T14:40:13.192Z,45.5
2023-03-17T14:42:10.704Z,45.9
2023-03-17T14:44:08.221Z,45.9
2023-03-17T14:46:05.804Z,45.9
2023-03-17T14:48:11.279Z,45.8
2023-03-17T14:50:08.800Z,45.6
2023-03-17T14:52:06.351Z,45.4
2023-03-17T14:54:03.909Z,45.3
2023-03-17T14:56:01.473Z,45.4
2023-03-17T14:57:59.028Z,45.6
2023-03-17T14:59:56.552Z,45.8
2023-03-17T15:02:02.107Z,46.6
2023-03-17T15:03:59.614Z,46.9
2023-03-17T15:05:57.168Z,47.1
2023-03-17T15:07:54.736Z,47.2
2023-03-17T15:09:52.355Z,47.4
2023-03-17T15:11:49.906Z,47.4
2023-03-17T15:13:47.469Z,47.4
2023-03-17T15:15:52.957Z,47.4
2023-03-17T15:17:50.514Z,47.4
2023-03-17T15:19:48.108Z,47.4
2023-03-17T15:20:50.841Z,47.5
2023-03-17T15:24:45.975Z,47.7
2023-03-17T15:26:43.554Z,47.9
2023-03-17T15:28:49.046Z,48.1
2023-03-17T15:36:39.373Z,48.3
2023-03-17T15:42:40.034Z,48.8
2023-03-17T15:44:37.624Z,48.9
2023-03-17T15:46:35.249Z,49
2023-03-17T15:48:32.755Z,49
2023-03-17T15:50:30.623Z,49.1
2023-03-17T15:52:27.922Z,49.2
2023-03-17T15:54:25.495Z,49.2
2023-03-17T15:56:31.007Z,50.3
2023-03-17T15:58:28.564Z,50.8
2023-03-17T16:02:23.730Z,51.9
2023-03-17T16:04:21.407Z,52.3
2023-03-17T16:06:19.754Z,52.8
2023-03-17T16:12:20.364Z,53.9
2023-03-17T16:14:17.978Z,54.1
2023-03-17T16:17:18.295Z,54.3
2023-03-17T16:19:15.878Z,54.5
2023-03-17T16:21:13.474Z,54.7
2023-03-17T16:23:18.971Z,55
2023-03-17T16:25:16.559Z,55.1
2023-03-17T16:29:11.689Z,55.3
2023-03-17T16:31:09.356Z,55.3
2023-03-17T16:35:06.611Z,55.5
2023-03-17T16:37:10.018Z,55.8
2023-03-17T16:39:07.589Z,55.9
2023-03-17T16:41:05.163Z,56
2023-03-17T16:43:03.939Z,56.2
2023-03-17T16:45:00.358Z,56.4
2023-03-17T16:46:57.975Z,56.6
2023-03-17T16:48:55.554Z,56.7
2023-03-17T16:51:01.081Z,57
2023-03-17T16:52:58.654Z,57.1
2023-03-17T16:54:56.294Z,57.1
2023-03-17T16:56:53.895Z,57.2
2023-03-17T16:58:51.477Z,57.3
2023-03-17T17:00:49.080Z,57.5
2023-03-17T17:02:49.186Z,57.5
2023-03-17T17:04:52.200Z,57.6
2023-03-17T17:06:49.790Z,57.7
2023-03-17T17:08:47.402Z,57.7
2023-03-17T17:11:14.284Z,57.7
2023-03-17T17:13:11.884Z,57.8
2023-03-17T17:15:09.497Z,57.8
2023-03-17T17:17:15.030Z,58
2023-03-17T17:19:12.594Z,58.1
2023-03-17T17:21:10.194Z,58.4
2023-03-17T17:23:07.846Z,58.5
2023-03-17T17:25:05.435Z,58.6
2023-03-17T17:27:03.035Z,58.6
2023-03-17T17:29:00.617Z,58.7
2023-03-17T17:31:06.187Z,59
2023-03-17T17:33:03.799Z,59.1
2023-03-17T17:35:01.379Z,59.1
2023-03-17T17:36:58.999Z,59.5
2023-03-17T17:38:56.622Z,60.4
2023-03-17T17:40:54.192Z,60.7
2023-03-17T17:42:51.785Z,61
2023-03-17T17:44:57.297Z,61.4
2023-03-17T17:46:54.996Z,61.7
2023-03-17T17:48:52.540Z,61.4
2023-03-17T17:50:50.137Z,61.3
2023-03-17T17:52:48.059Z,61.6
2023-03-17T17:56:42.928Z,61.7
2023-03-17T17:58:48.463Z,62.1
2023-03-17T18:03:46.420Z,62.3
2023-03-17T18:05:44.096Z,62.4
2023-03-17T18:07:41.638Z,62.5
2023-03-17T18:09:39.228Z,62.7
2023-03-17T18:11:44.744Z,63.1
2023-03-17T18:13:42.364Z,63.2
2023-03-17T18:15:39.960Z,63.4
2023-03-17T18:17:37.616Z,63.4
2023-03-17T18:19:35.193Z,63.4
2023-03-17T18:21:32.899Z,63.4
2023-03-17T18:31:28.832Z,64.1
2023-03-17T18:33:26.384Z,64.2
2023-03-17T18:35:24.155Z,64.3
2023-03-17T18:37:21.633Z,64.5
2023-03-17T18:39:27.136Z,65.1
2023-03-17T18:41:24.741Z,65.4
2023-03-17T18:43:22.370Z,65.7
2023-03-17T18:47:17.571Z,66.2
2023-03-17T18:51:12.793Z,66.5
2023-03-17T18:53:18.330Z,66.6
2023-03-17T18:57:13.523Z,66.8
2023-03-17T18:58:16.330Z,66.9
2023-03-17T19:00:13.932Z,67
2023-03-17T19:10:09.832Z,67.5
2023-03-17T19:12:07.391Z,67.4
2023-03-17T19:18:01.775Z,67.1
2023-03-17T19:20:07.261Z,67.2
2023-03-17T19:22:05.163Z,67.2
2023-03-17T19:24:02.489Z,67.3
2023-03-17T19:26:00.113Z,67.3
2023-03-17T19:27:57.712Z,67.5
2023-03-17T19:29:55.300Z,67.4
2023-03-17T19:31:52.963Z,67.3
2023-03-17T19:33:58.449Z,67.2
2023-03-17T19:35:56.155Z,67.2
2023-03-17T19:39:51.286Z,67.3
2023-03-17T19:41:48.901Z,67.4
2023-03-17T19:43:46.483Z,67.4
2023-03-17T19:45:44.152Z,67.5
2023-03-17T19:47:49.602Z,67.6
2023-03-17T19:49:47.213Z,67.6
2023-03-17T19:51:44.866Z,67.6
2023-03-17T19:52:47.607Z,67.6
2023-03-17T19:56:42.838Z,67.6
2023-03-17T20:02:43.510Z,67.8
2023-03-17T20:04:41.240Z,67.8
2023-03-17T20:10:33.981Z,67.6
2023-03-17T20:12:31.585Z,67.3
2023-03-17T20:14:37.093Z,67.2
2023-03-17T20:16:34.735Z,67.1
2023-03-17T20:18:32.330Z,67
2023-03-17T20:20:30.160Z,66.9
2023-03-17T20:22:27.573Z,66.7
2023-03-17T20:24:25.180Z,66.4
2023-03-17T20:26:22.784Z,65.7
2023-03-17T20:28:29.952Z,64.3
2023-03-17T20:30:25.936Z,63.8
2023-03-17T20:32:23.530Z,62.9
2023-03-17T20:34:21.152Z,62.2
2023-03-17T20:36:18.752Z,61.4
2023-03-17T20:38:16.361Z,60.4
2023-03-17T20:42:20.707Z,59.2
2023-03-17T20:44:17.104Z,59
2023-03-17T20:46:14.741Z,58.6
2023-03-17T20:48:41.630Z,58
2023-03-17T20:50:39.302Z,57.9
2023-03-17T20:52:36.879Z,57.8
2023-03-17T20:54:42.378Z,57.6
2023-03-17T20:56:39.966Z,57.6
2023-03-17T20:58:37.589Z,57.7
2023-03-17T21:02:32.858Z,57.7
2023-03-17T21:04:30.424Z,57.7
2023-03-17T21:06:28.016Z,57.6
2023-03-17T21:08:33.557Z,57.6
2023-03-17T21:10:31.569Z,57.6
2023-03-17T21:12:28.793Z,57.6
2023-03-17T21:20:19.217Z,57.5
2023-03-17T21:22:24.713Z,57.4
2023-03-17T21:26:19.954Z,57.3
2023-03-17T21:28:17.538Z,57.3
2023-03-17T21:30:15.184Z,57.3
2023-03-17T21:34:10.380Z,57.2
2023-03-17T21:40:11.109Z,57.3
2023-03-17T21:43:11.494Z,57.4
2023-03-17T21:45:09.082Z,57.5
2023-03-17T21:47:06.658Z,57.4
2023-03-17T21:49:12.181Z,57.5
2023-03-17T21:51:09.785Z,57.5
2023-03-17T21:53:07.394Z,57.5
2023-03-17T21:55:04.989Z,57.5
2023-03-17T21:57:02.574Z,57.6
2023-03-17T21:59:00.197Z,57.6
2023-03-17T22:00:57.865Z,57.5
2023-03-17T22:06:58.526Z,57.6
2023-03-17T22:08:56.122Z,57.6
2023-03-17T22:12:51.349Z,57.6
2023-03-17T22:14:48.941Z,57.6
2023-03-17T22:16:54.493Z,57.7
2023-03-17T22:18:52.050Z,57.8
2023-03-17T22:20:49.666Z,57.9
2023-03-17T22:22:47.276Z,58
2023-03-17T22:24:44.847Z,58.1
2023-03-17T22:26:42.483Z,58.2
2023-03-17T22:28:40.095Z,58.2
2023-03-17T22:30:45.618Z,58.4
2023-03-17T22:32:43.307Z,58.5
2023-03-17T22:34:40.822Z,58.5
2023-03-17T22:35:43.613Z,58.5
2023-03-17T22:37:41.190Z,58.6
2023-03-17T22:39:38.812Z,58.7
2023-03-17T22:47:37.128Z,59.2
2023-03-17T22:51:32.363Z,59.3
2023-03-17T22:55:27.555Z,59.4
2023-03-17T22:57:33.144Z,59.5
2023-03-17T22:59:30.668Z,59.6
2023-03-17T23:01:28.361Z,59.7
2023-03-17T23:03:26.043Z,59.8
2023-03-17T23:05:23.495Z,59.9
2023-03-17T23:07:21.112Z,60
2023-03-17T23:09:18.720Z,60.1
2023-03-17T23:11:24.238Z,60.2
2023-03-17T23:13:21.832Z,60.3
2023-03-17T23:17:17.032Z,60.4
2023-03-17T23:19:14.651Z,60.5
2023-03-17T23:21:12.256Z,60.7
2023-03-17T23:23:09.855Z,60.8
2023-03-17T23:25:15.347Z,61.1
2023-03-17T23:27:12.955Z,61.2
2023-03-17T23:30:13.337Z,61.4
2023-03-17T23:32:10.963Z,61.5
2023-03-17T23:34:08.567Z,61.6
2023-03-17T23:36:06.245Z,61.7
2023-03-17T23:38:11.748Z,62
2023-03-17T23:40:09.398Z,62.1
2023-03-17T23:42:06.960Z,62.2
2023-03-17T23:44:04.610Z,62.4
2023-03-17T23:47:59.819Z,62.8
2023-03-17T23:49:57.416Z,63
2023-03-17T23:52:02.930Z,63.4
2023-03-17T23:54:00.551Z,63.6
2023-03-17T23:55:58.176Z,63.8
2023-03-17T23:57:55.755Z,63.9
2023-03-17T23:59:53.377Z,64.1
